Terminal Aerodrome Forecast
Issued by NWS

Home | Current Version | Previous Version | Text Only | Print | Product List | Glossary On
Versions: 1 2 3 4 5 6 7 8 9 10 11 12 13
000
FTUS46 KSGX 251000 AAB
TAFONT
TAF AMD
KONT 251005Z 2510/2612 30006KT P6SM BKN030
      TEMPO 2510/2512 BKN015
     FM251200 VRB05KT P6SM FEW035
     FM251800 06011G18KT P6SM SKC
     FM260200 VRB05KT P6SM SKC WS015/06020KT=

USA.gov is the U.S. government's official web portal to all federal, state and local government web resources and services.